Time;durP1;ratioP1;P1;durP2;ratioP2;P2;SDS_P1;SDS_P2;PMS_P1;PMS_P2;Temp;Humidity;BMP_temperature;BMP_pressure;BME280_temperature;BME280_humidity;BME280_pressure;Samples;Min_cycle;Max_cycle;Signal;HPM_P1;HPM_P2
2023/02/25 00:01:39;;;;;;;7.95;1.00;;;2.90;99.90;;;;;;6218734;23;20339;-88
2023/02/25 00:04:04;;;;;;;13.07;1.00;;;2.90;99.90;;;;;;6217492;23;20000;-87
2023/02/25 00:06:30;;;;;;;12.32;1.73;;;2.80;99.90;;;;;;6218478;23;20437;-88
2023/02/25 00:08:55;;;;;;;14.95;0.90;;;2.80;99.90;;;;;;6217749;23;20040;-88
2023/02/25 00:11:24;;;;;;;8.23;0.80;;;2.80;99.90;;;;;;6244165;23;20741;-88
2023/02/25 00:13:49;;;;;;;14.32;0.85;;;2.80;99.90;;;;;;6244906;23;20148;-88
2023/02/25 00:16:16;;;;;;;16.23;0.93;;;2.80;99.90;;;;;;6244371;23;20068;-88
2023/02/25 00:18:45;;;;;;;12.23;1.67;;;2.90;99.90;;;;;;6245166;23;20055;-88
2023/02/25 00:21:14;;;;;;;20.30;1.65;;;2.90;99.90;;;;;;6217168;23;20017;-88
2023/02/25 00:23:44;;;;;;;12.48;1.77;;;3.00;99.90;;;;;;6217873;23;20291;-87
2023/02/25 00:26:10;;;;;;;20.67;1.33;;;3.00;99.90;;;;;;6217027;23;20086;-86
2023/02/25 00:28:36;;;;;;;14.85;1.25;;;3.00;99.90;;;;;;6216464;23;20012;-87
2023/02/25 00:31:10;;;;;;;13.98;1.25;;;3.00;99.90;;;;;;6217878;23;20087;-88
2023/02/25 00:33:40;;;;;;;11.52;1.20;;;3.10;99.90;;;;;;6219071;23;20086;-88
2023/02/25 00:36:08;;;;;;;12.23;0.93;;;3.10;99.90;;;;;;6218348;23;20028;-87
2023/02/25 00:38:35;;;;;;;10.05;0.80;;;3.20;99.90;;;;;;6217814;23;20342;-88
2023/02/25 00:41:10;;;;;;;15.07;1.30;;;3.20;99.90;;;;;;6218098;23;20338;-88
2023/02/25 00:43:37;;;;;;;11.85;1.00;;;3.20;99.90;;;;;;6218265;23;20008;-88
2023/02/25 00:46:03;;;;;;;12.35;1.00;;;3.20;99.90;;;;;;6217274;23;20016;-88
2023/02/25 00:48:28;;;;;;;19.13;1.30;;;3.20;99.90;;;;;;6217982;23;20012;-88
2023/02/25 00:50:54;;;;;;;12.55;1.20;;;3.30;99.90;;;;;;6218515;23;20002;-88
2023/02/25 00:53:19;;;;;;;17.10;1.17;;;3.30;99.90;;;;;;6217683;23;20366;-88
2023/02/25 00:55:45;;;;;;;13.70;1.67;;;3.30;99.90;;;;;;6244728;22;20004;-88
2023/02/25 00:58:10;;;;;;;11.80;0.77;;;3.30;99.90;;;;;;6217980;23;20064;-88
2023/02/25 01:00:36;;;;;;;11.45;1.10;;;3.30;99.90;;;;;;6245080;23;20087;-87
2023/02/25 01:03:01;;;;;;;12.63;0.98;;;3.30;99.90;;;;;;6244361;23;20004;-88
2023/02/25 01:05:27;;;;;;;13.70;0.90;;;3.40;99.90;;;;;;6244700;23;20000;-88
2023/02/25 01:07:52;;;;;;;12.80;1.30;;;3.40;99.90;;;;;;6218153;23;20012;-87
2023/02/25 01:10:18;;;;;;;17.20;1.45;;;3.40;99.90;;;;;;6217750;23;20011;-88
2023/02/25 01:12:44;;;;;;;14.23;1.33;;;3.40;99.90;;;;;;6245218;23;20004;-87
2023/02/25 01:15:10;;;;;;;14.65;1.42;;;3.40;99.90;;;;;;6216956;23;20004;-88
2023/02/25 01:17:35;;;;;;;12.77;1.35;;;3.40;99.90;;;;;;6244079;23;20000;-89
2023/02/25 01:20:04;;;;;;;14.30;0.90;;;3.50;99.90;;;;;;6217035;23;20062;-88
2023/02/25 01:22:30;;;;;;;13.85;1.48;;;3.60;99.90;;;;;;6217983;23;20000;-88
2023/02/25 01:24:55;;;;;;;17.00;1.20;;;3.60;99.90;;;;;;6219492;23;20000;-88
2023/02/25 01:27:21;;;;;;;17.33;1.17;;;3.60;99.90;;;;;;6219700;23;20012;-88
2023/02/25 01:29:46;;;;;;;12.70;0.98;;;3.70;99.90;;;;;;6219527;23;20004;-88
2023/02/25 01:32:13;;;;;;;12.93;0.88;;;3.80;99.90;;;;;;6245708;23;20004;-88
2023/02/25 01:34:40;;;;;;;14.85;1.85;;;3.90;99.90;;;;;;6219842;23;20039;-88
2023/02/25 01:37:06;;;;;;;6.45;0.40;;;4.00;99.90;;;;;;6246091;23;20075;-88
2023/02/25 01:39:32;;;;;;;10.13;0.50;;;4.10;99.90;;;;;;6246449;23;20050;-88
2023/02/25 01:42:01;;;;;;;15.68;0.70;;;4.10;99.90;;;;;;6246656;23;20027;-88
2023/02/25 01:44:57;;;;;;;5.10;0.35;;;4.10;99.90;;;;;;6219116;23;20324;-87
2023/02/25 01:47:22;;;;;;;8.20;0.65;;;4.20;99.90;;;;;;6245714;23;20058;-88
2023/02/25 01:49:48;;;;;;;8.38;0.63;;;4.10;99.90;;;;;;6219314;23;20007;-88
2023/02/25 01:52:24;;;;;;;11.05;0.60;;;4.10;99.90;;;;;;6219057;23;20043;-88
2023/02/25 01:54:55;;;;;;;12.60;0.55;;;4.10;99.90;;;;;;6218814;23;20008;-87
2023/02/25 01:57:22;;;;;;;18.35;0.60;;;4.10;99.90;;;;;;6245486;22;20849;-87
2023/02/25 01:59:50;;;;;;;10.32;1.45;;;4.00;99.90;;;;;;6219497;23;20004;-88
2023/02/25 02:02:20;;;;;;;12.75;0.85;;;4.10;99.90;;;;;;6219239;23;20448;-87
2023/02/25 02:04:51;;;;;;;11.63;1.00;;;4.10;99.90;;;;;;6245261;23;20015;-88
2023/02/25 02:07:18;;;;;;;9.43;0.85;;;4.10;99.90;;;;;;6219171;23;20038;-88
2023/02/25 02:09:54;;;;;;;16.30;1.80;;;4.10;99.90;;;;;;6218788;23;20007;-88
2023/02/25 02:12:22;;;;;;;7.18;0.65;;;4.10;99.90;;;;;;6218752;23;20000;-88
2023/02/25 02:14:48;;;;;;;12.77;0.52;;;4.00;99.90;;;;;;6245710;23;20023;-88
2023/02/25 02:17:21;;;;;;;12.60;0.55;;;4.00;99.90;;;;;;6218935;23;20004;-88
2023/02/25 02:20:12;;;;;;;12.98;0.70;;;4.00;99.90;;;;;;6245125;23;20031;-87
2023/02/25 02:23:14;;;;;;;14.45;0.88;;;3.90;99.90;;;;;;6246125;23;20004;-88
2023/02/25 02:25:51;;;;;;;16.40;0.75;;;3.90;99.90;;;;;;6219012;23;20008;-88
2023/02/25 02:28:36;;;;;;;9.20;1.92;;;3.90;99.90;;;;;;6245382;23;20112;-88
2023/02/25 02:31:24;;;;;;;8.25;0.55;;;3.80;99.90;;;;;;6218954;23;20043;-89
2023/02/25 02:34:15;;;;;;;12.32;0.77;;;3.90;99.90;;;;;;6218775;23;20434;-88
2023/02/25 02:37:20;;;;;;;10.85;1.58;;;3.80;99.90;;;;;;6219436;23;20070;-87
2023/02/25 02:40:00;;;;;;;9.00;0.50;;;3.80;99.90;;;;;;6219185;23;20000;-87
2023/02/25 02:42:53;;;;;;;12.43;0.93;;;3.80;99.90;;;;;;6218652;23;20042;-87
2023/02/25 02:45:27;;;;;;;16.83;1.15;;;3.80;99.90;;;;;;6218871;23;20345;-87
2023/02/25 02:47:59;;;;;;;13.73;0.88;;;3.80;99.90;;;;;;6218725;23;20434;-87
2023/02/25 02:50:42;;;;;;;8.45;0.60;;;3.80;99.90;;;;;;6244660;23;19996;-88
2023/02/25 02:53:20;;;;;;;14.52;0.98;;;3.80;99.90;;;;;;6244840;23;20058;-87
2023/02/25 02:55:51;;;;;;;12.15;0.80;;;3.80;99.90;;;;;;6245355;23;20411;-87
2023/02/25 02:58:22;;;;;;;15.88;0.77;;;3.80;99.90;;;;;;6245020;23;20007;-87
2023/02/25 03:00:54;;;;;;;12.57;1.52;;;3.80;99.90;;;;;;6245450;23;20000;-87
2023/02/25 03:03:35;;;;;;;12.63;0.75;;;3.80;99.90;;;;;;6217675;23;20008;-87
2023/02/25 03:06:03;;;;;;;11.98;0.77;;;3.80;99.90;;;;;;6245321;23;20075;-88
2023/02/25 03:08:31;;;;;;;9.25;0.50;;;3.90;99.90;;;;;;6245823;23;20008;-87
2023/02/25 03:10:57;;;;;;;14.82;0.80;;;3.90;99.90;;;;;;6245762;23;20031;-88
2023/02/25 03:13:22;;;;;;;16.15;0.98;;;3.80;99.90;;;;;;6218585;23;20023;-87
2023/02/25 03:15:49;;;;;;;12.10;0.63;;;3.80;99.90;;;;;;6218638;23;20308;-87
2023/02/25 03:18:30;;;;;;;9.73;0.50;;;3.80;99.90;;;;;;6245079;23;20076;-88
2023/02/25 03:20:57;;;;;;;12.75;0.50;;;3.80;99.90;;;;;;6244804;23;20027;-87
2023/02/25 03:23:27;;;;;;;12.15;1.45;;;3.70;99.90;;;;;;6218311;23;20004;-87
2023/02/25 03:26:21;;;;;;;9.38;0.52;;;3.70;99.90;;;;;;6218395;23;20087;-87
2023/02/25 03:28:46;;;;;;;6.63;0.50;;;3.60;99.90;;;;;;6218689;23;20107;-87
2023/02/25 03:31:27;;;;;;;7.28;0.60;;;3.60;99.90;;;;;;6218183;23;20413;-88
2023/02/25 03:34:12;;;;;;;9.00;0.70;;;3.60;99.90;;;;;;6219139;23;20000;-88
2023/02/25 03:36:47;;;;;;;6.97;0.47;;;3.60;99.90;;;;;;6245571;22;20316;-87
2023/02/25 03:39:39;;;;;;;12.05;0.85;;;3.50;99.90;;;;;;6217491;23;20032;-87
2023/02/25 03:42:09;;;;;;;6.97;0.65;;;3.50;99.90;;;;;;6218008;23;20066;-87
2023/02/25 03:44:40;;;;;;;7.32;1.33;;;3.50;99.90;;;;;;6219930;23;20000;-88
2023/02/25 03:47:08;;;;;;;9.00;0.90;;;3.50;99.90;;;;;;6221377;23;20498;-87
2023/02/25 03:49:42;;;;;;;10.07;0.60;;;3.50;99.90;;;;;;6227295;23;20007;-87
2023/02/25 03:52:13;;;;;;;5.18;0.50;;;3.50;99.90;;;;;;6224579;23;20023;-88
2023/02/25 03:54:39;;;;;;;8.93;0.70;;;3.50;99.90;;;;;;6223129;23;20008;-88
2023/02/25 03:57:05;;;;;;;13.57;0.88;;;3.50;99.90;;;;;;6246450;23;20008;-88
2023/02/25 03:59:30;;;;;;;12.88;1.00;;;3.50;99.90;;;;;;6243701;22;20047;-88
2023/02/25 04:01:59;;;;;;;8.65;0.90;;;3.50;99.90;;;;;;6244966;23;20122;-89
2023/02/25 04:04:24;;;;;;;7.32;0.50;;;3.50;99.90;;;;;;6217788;23;20007;-87
2023/02/25 04:06:51;;;;;;;16.70;1.08;;;3.60;99.90;;;;;;6245927;23;20334;-88
2023/02/25 04:09:17;;;;;;;8.80;0.93;;;3.60;99.90;;;;;;6217670;23;20119;-88
2023/02/25 04:11:42;;;;;;;14.25;1.45;;;3.70;99.90;;;;;;6245273;23;19997;-87
2023/02/25 04:14:08;;;;;;;13.55;0.85;;;3.70;99.90;;;;;;6244601;23;20075;-87
2023/02/25 04:16:34;;;;;;;15.13;0.75;;;3.70;99.90;;;;;;6218526;23;20000;-87
2023/02/25 04:18:59;;;;;;;14.55;1.88;;;3.80;99.90;;;;;;6218064;23;20015;-88
2023/02/25 04:21:29;;;;;;;8.20;0.80;;;3.80;99.90;;;;;;6218494;23;20004;-87
2023/02/25 04:23:55;;;;;;;9.95;1.30;;;3.80;99.90;;;;;;6244579;23;20000;-88
2023/02/25 04:26:21;;;;;;;13.05;1.15;;;3.80;99.90;;;;;;6217670;23;20095;-87
2023/02/25 04:28:46;;;;;;;14.30;0.95;;;3.80;99.90;;;;;;6217501;23;20048;-87
2023/02/25 04:31:12;;;;;;;14.68;1.25;;;3.90;99.90;;;;;;6217810;23;20001;-87
2023/02/25 04:33:37;;;;;;;15.55;0.98;;;3.90;99.90;;;;;;6219183;23;20004;-87
2023/02/25 04:36:03;;;;;;;15.20;0.90;;;3.90;99.90;;;;;;6216831;23;20000;-87
2023/02/25 04:38:29;;;;;;;14.95;1.10;;;4.00;99.90;;;;;;6217685;23;20004;-87
2023/02/25 04:40:54;;;;;;;14.63;1.00;;;4.00;99.90;;;;;;6243730;23;19997;-88
2023/02/25 04:43:20;;;;;;;17.45;1.35;;;4.00;99.90;;;;;;6216708;23;20004;-88
2023/02/25 04:45:46;;;;;;;16.42;1.52;;;4.00;99.90;;;;;;6242402;23;20051;-88
2023/02/25 04:48:11;;;;;;;8.52;1.10;;;4.00;99.90;;;;;;6217670;23;20012;-88
2023/02/25 04:50:37;;;;;;;13.27;0.80;;;3.80;99.90;;;;;;6217156;23;20083;-88
2023/02/25 04:53:02;;;;;;;14.50;0.88;;;3.80;99.90;;;;;;6215986;23;20342;-88
2023/02/25 04:55:29;;;;;;;11.93;1.20;;;3.70;99.90;;;;;;6217098;23;20341;-88
2023/02/25 04:57:54;;;;;;;15.68;1.60;;;3.60;99.90;;;;;;6217733;23;20125;-87
2023/02/25 05:00:23;;;;;;;17.67;1.17;;;3.60;99.90;;;;;;6245197;23;20004;-87
2023/02/25 05:02:49;;;;;;;16.00;0.98;;;3.50;99.90;;;;;;6219244;23;20005;-88
2023/02/25 05:05:15;;;;;;;17.80;1.52;;;3.50;99.90;;;;;;6219260;23;20013;-88
2023/02/25 05:07:40;;;;;;;10.85;1.10;;;3.40;99.90;;;;;;6219223;23;20042;-88
2023/02/25 05:10:08;;;;;;;23.83;1.50;;;3.40;99.90;;;;;;6218833;23;19997;-88
2023/02/25 05:12:34;;;;;;;14.75;1.30;;;3.40;99.90;;;;;;6219038;23;20493;-87
2023/02/25 05:15:02;;;;;;;9.32;0.80;;;3.40;99.90;;;;;;6219398;23;20054;-87
2023/02/25 05:17:28;;;;;;;18.02;2.42;;;3.40;99.90;;;;;;6219747;23;20000;-87
2023/02/25 05:19:54;;;;;;;13.35;1.50;;;3.30;99.90;;;;;;6217221;23;20069;-87
2023/02/25 05:22:19;;;;;;;15.52;1.00;;;3.40;99.90;;;;;;6219883;23;20339;-87
2023/02/25 05:24:45;;;;;;;16.52;1.33;;;3.40;99.90;;;;;;6219622;23;20059;-88
2023/02/25 05:27:10;;;;;;;19.40;1.40;;;3.40;99.90;;;;;;6219221;23;20012;-87
2023/02/25 05:29:36;;;;;;;15.93;1.27;;;3.30;99.90;;;;;;6216851;23;20054;-87
2023/02/25 05:32:02;;;;;;;12.18;1.00;;;3.30;99.90;;;;;;6216740;23;20450;-87
2023/02/25 05:34:27;;;;;;;16.75;2.03;;;3.30;99.90;;;;;;6219657;23;20019;-88
2023/02/25 05:36:53;;;;;;;16.15;1.10;;;3.30;99.90;;;;;;6246775;23;20094;-88
2023/02/25 05:39:18;;;;;;;24.20;2.53;;;3.40;99.90;;;;;;6218435;23;19997;-87
2023/02/25 05:41:44;;;;;;;14.23;1.38;;;3.30;99.90;;;;;;6219016;23;20004;-87
2023/02/25 05:44:10;;;;;;;13.43;0.70;;;3.40;99.90;;;;;;6217098;23;20027;-88
2023/02/25 05:46:36;;;;;;;20.48;1.48;;;3.40;99.90;;;;;;6220027;23;20012;-88
2023/02/25 05:49:02;;;;;;;16.50;1.13;;;3.50;99.90;;;;;;6218371;23;20405;-88
2023/02/25 05:51:27;;;;;;;17.92;1.10;;;3.60;99.90;;;;;;6219339;23;20008;-89
2023/02/25 05:53:53;;;;;;;12.10;1.27;;;3.50;99.90;;;;;;6218421;23;20107;-88
2023/02/25 05:56:22;;;;;;;11.10;1.60;;;3.30;99.90;;;;;;6218712;23;20001;-89
2023/02/25 05:58:48;;;;;;;21.38;0.85;;;3.20;99.90;;;;;;6218493;23;20007;-88
2023/02/25 06:01:21;;;;;;;18.95;1.15;;;3.10;99.90;;;;;;6245175;23;20000;-88
2023/02/25 06:03:48;;;;;;;13.18;1.48;;;3.00;99.90;;;;;;6216692;23;20015;-88
2023/02/25 06:06:16;;;;;;;10.40;0.70;;;3.00;99.90;;;;;;6216838;23;20004;-87
2023/02/25 06:08:46;;;;;;;11.25;0.95;;;3.00;99.90;;;;;;6218198;23;20099;-88
2023/02/25 06:11:18;;;;;;;12.20;0.80;;;3.00;99.90;;;;;;6243863;23;20084;-88
2023/02/25 06:13:43;;;;;;;10.95;0.73;;;2.90;99.90;;;;;;6217868;23;20031;-88
2023/02/25 06:16:09;;;;;;;10.95;1.00;;;2.80;99.90;;;;;;6218195;23;20071;-87
2023/02/25 06:18:38;;;;;;;12.30;0.70;;;2.80;99.90;;;;;;6218234;23;20089;-87
2023/02/25 06:21:09;;;;;;;9.45;1.05;;;2.80;99.90;;;;;;6217395;23;20438;-87
2023/02/25 06:23:35;;;;;;;22.35;0.85;;;2.80;99.90;;;;;;6243582;23;19996;-88
2023/02/25 06:26:03;;;;;;;14.90;0.93;;;2.80;99.90;;;;;;6216478;23;20430;-87
2023/02/25 06:28:29;;;;;;;11.65;0.45;;;2.80;99.90;;;;;;6216993;23;20370;-87
2023/02/25 06:30:55;;;;;;;11.32;0.70;;;2.90;99.90;;;;;;6242208;22;20049;-87
2023/02/25 06:33:20;;;;;;;13.57;0.65;;;2.90;99.90;;;;;;6216462;23;20004;-87
2023/02/25 06:35:51;;;;;;;13.20;0.80;;;2.80;99.90;;;;;;6217819;23;19997;-87
2023/02/25 06:38:16;;;;;;;10.55;0.55;;;2.80;99.90;;;;;;6216536;23;20000;-88
2023/02/25 06:40:42;;;;;;;10.82;2.03;;;2.80;99.90;;;;;;6217212;23;20027;-88
2023/02/25 06:43:07;;;;;;;9.40;0.50;;;2.80;99.90;;;;;;6217603;23;20315;-88
2023/02/25 06:45:33;;;;;;;23.17;2.45;;;2.80;99.90;;;;;;6217800;23;20004;-87
2023/02/25 06:47:58;;;;;;;17.73;0.98;;;2.90;99.90;;;;;;6218884;23;20048;-88
2023/02/25 06:50:24;;;;;;;7.35;0.60;;;2.90;99.90;;;;;;6217713;23;19996;-87
2023/02/25 06:52:49;;;;;;;22.25;1.77;;;2.90;99.90;;;;;;6216828;23;20004;-87
2023/02/25 06:55:15;;;;;;;14.43;1.00;;;3.00;99.90;;;;;;6216880;23;20014;-87
2023/02/25 06:57:40;;;;;;;13.98;1.05;;;2.90;99.90;;;;;;6217167;23;20012;-87
2023/02/25 07:00:08;;;;;;;12.20;0.80;;;2.90;99.90;;;;;;6224092;23;20423;-87
2023/02/25 07:02:33;;;;;;;13.27;1.08;;;2.90;99.90;;;;;;6225729;23;20008;-87
2023/02/25 07:05:00;;;;;;;19.88;1.95;;;3.00;99.90;;;;;;6220972;23;20003;-88
2023/02/25 07:07:25;;;;;;;12.52;1.38;;;3.00;99.90;;;;;;6216578;23;20095;-87
2023/02/25 07:09:51;;;;;;;20.10;1.92;;;3.00;99.90;;;;;;6217884;23;20035;-88
2023/02/25 07:12:17;;;;;;;11.50;0.60;;;3.00;99.90;;;;;;6245489;23;20019;-88
2023/02/25 07:14:42;;;;;;;8.25;0.68;;;2.90;99.90;;;;;;6218768;23;20004;-88
2023/02/25 07:17:08;;;;;;;4.63;0.45;;;3.00;99.90;;;;;;6218144;23;20000;-88
2023/02/25 07:19:33;;;;;;;10.63;0.50;;;2.90;99.90;;;;;;6217639;23;20012;-87
2023/02/25 07:21:59;;;;;;;10.73;0.68;;;2.90;99.90;;;;;;6217495;23;20326;-87
2023/02/25 07:24:25;;;;;;;7.78;0.50;;;2.80;99.90;;;;;;6216572;23;20431;-88
2023/02/25 07:26:51;;;;;;;12.27;0.90;;;2.80;99.90;;;;;;6217608;23;20087;-87
2023/02/25 07:29:16;;;;;;;8.07;1.60;;;2.90;99.90;;;;;;6217827;23;20048;-87
2023/02/25 07:31:45;;;;;;;17.23;0.77;;;2.90;99.90;;;;;;6218080;23;20095;-87
2023/02/25 07:34:11;;;;;;;15.60;1.05;;;2.90;99.90;;;;;;6217461;23;20014;-87
2023/02/25 07:36:37;;;;;;;21.60;0.95;;;2.90;99.90;;;;;;6217272;23;20034;-87
2023/02/25 07:39:05;;;;;;;23.80;1.13;;;3.00;99.90;;;;;;6216681;23;20091;-87
2023/02/25 07:41:31;;;;;;;15.63;0.80;;;3.00;99.90;;;;;;6218025;23;20010;-88
2023/02/25 07:43:58;;;;;;;23.77;1.50;;;3.10;99.90;;;;;;6217655;23;20004;-88
2023/02/25 07:46:24;;;;;;;11.13;1.40;;;3.10;99.90;;;;;;6243102;23;20378;-87
2023/02/25 07:48:50;;;;;;;14.05;0.77;;;3.20;99.90;;;;;;6217744;23;20019;-87
2023/02/25 07:51:19;;;;;;;9.60;1.10;;;3.30;99.90;;;;;;6218195;23;20005;-88
2023/02/25 07:53:46;;;;;;;26.98;1.73;;;3.40;99.90;;;;;;6218192;23;20012;-89
2023/02/25 07:56:13;;;;;;;10.48;1.00;;;3.40;99.90;;;;;;6218478;23;20003;-88
2023/02/25 07:58:39;;;;;;;19.02;1.75;;;3.30;99.90;;;;;;6218378;23;20050;-89
2023/02/25 08:01:08;;;;;;;12.43;1.20;;;3.30;99.90;;;;;;6241803;23;19996;-88
2023/02/25 08:03:34;;;;;;;10.13;0.80;;;3.30;99.90;;;;;;6217518;23;20028;-88
2023/02/25 08:06:01;;;;;;;9.25;1.65;;;3.30;99.90;;;;;;6218013;23;20446;-89
2023/02/25 08:08:27;;;;;;;16.95;1.10;;;3.30;99.90;;;;;;6244089;23;20012;-89
2023/02/25 08:10:53;;;;;;;11.57;0.80;;;3.30;99.90;;;;;;6216908;23;19997;-89
2023/02/25 08:13:18;;;;;;;17.55;0.60;;;3.30;99.90;;;;;;6217625;23;20015;-88
2023/02/25 08:15:45;;;;;;;13.30;0.80;;;3.40;99.90;;;;;;6217571;23;20438;-88
2023/02/25 08:18:11;;;;;;;21.02;2.03;;;3.40;99.90;;;;;;6215151;23;20014;-88
2023/02/25 08:20:37;;;;;;;14.85;0.60;;;3.40;99.90;;;;;;6217433;23;20409;-88
2023/02/25 08:23:03;;;;;;;19.27;1.85;;;3.50;99.90;;;;;;6217063;23;20032;-90
2023/02/25 08:25:29;;;;;;;9.52;0.52;;;3.60;99.90;;;;;;6216345;23;20006;-88
2023/02/25 08:27:54;;;;;;;12.50;0.70;;;3.60;99.90;;;;;;6216075;23;20065;-88
2023/02/25 08:30:20;;;;;;;9.50;0.80;;;3.70;99.90;;;;;;6217135;23;20000;-89
2023/02/25 08:32:46;;;;;;;10.13;0.70;;;3.70;99.90;;;;;;6218079;22;20004;-89
2023/02/25 08:35:13;;;;;;;16.08;0.80;;;3.70;99.90;;;;;;6218987;23;20489;-87
2023/02/25 08:37:38;;;;;;;10.18;0.73;;;3.70;99.90;;;;;;6218754;23;20004;-88
2023/02/25 08:40:12;;;;;;;11.45;1.55;;;3.70;99.90;;;;;;6220183;23;20031;-89
2023/02/25 08:42:38;;;;;;;10.10;0.80;;;3.80;99.90;;;;;;6220295;23;20015;-88
2023/02/25 08:45:04;;;;;;;11.98;0.65;;;3.80;99.90;;;;;;6219476;23;20004;-88
2023/02/25 08:47:29;;;;;;;15.23;0.88;;;3.90;99.90;;;;;;6219447;23;20018;-87
2023/02/25 08:49:55;;;;;;;7.28;0.90;;;4.00;99.90;;;;;;6219963;23;20027;-87
2023/02/25 08:52:20;;;;;;;19.55;1.00;;;4.10;99.90;;;;;;6218084;23;20030;-88
2023/02/25 08:54:46;;;;;;;18.77;0.80;;;4.30;99.90;;;;;;6219518;23;20004;-87
2023/02/25 08:57:11;;;;;;;14.93;1.00;;;4.30;99.90;;;;;;6219303;23;20004;-87
2023/02/25 08:59:37;;;;;;;10.98;1.08;;;4.40;99.90;;;;;;6219978;23;20036;-88
2023/02/25 09:02:05;;;;;;;13.48;1.25;;;4.40;99.90;;;;;;6219247;23;20066;-87
2023/02/25 09:04:32;;;;;;;13.48;1.23;;;4.40;99.90;;;;;;6219505;23;20043;-88
2023/02/25 09:07:00;;;;;;;13.27;0.73;;;4.50;99.90;;;;;;6220314;23;20014;-87
2023/02/25 09:09:26;;;;;;;11.73;1.67;;;4.50;99.90;;;;;;6246914;22;20012;-87
2023/02/25 09:11:53;;;;;;;14.65;1.52;;;4.50;99.90;;;;;;6220009;23;20383;-88
2023/02/25 09:14:19;;;;;;;13.77;1.23;;;4.50;99.90;;;;;;6218866;23;20011;-89
2023/02/25 09:16:45;;;;;;;9.43;0.85;;;4.50;99.90;;;;;;6219917;23;20079;-87
2023/02/25 09:19:11;;;;;;;15.65;1.38;;;4.60;99.90;;;;;;6220600;23;20059;-88
2023/02/25 09:21:39;;;;;;;13.63;1.00;;;4.60;99.90;;;;;;6219895;23;20083;-88
2023/02/25 09:24:06;;;;;;;20.15;1.00;;;4.70;99.90;;;;;;6219923;23;20008;-88
2023/02/25 09:26:31;;;;;;;12.93;1.08;;;4.70;99.90;;;;;;6219244;23;20004;-88
2023/02/25 09:29:00;;;;;;;11.10;1.15;;;4.70;99.90;;;;;;6246724;23;20020;-88
2023/02/25 09:31:26;;;;;;;13.55;1.13;;;4.80;99.90;;;;;;6218858;22;20054;-87
2023/02/25 09:33:51;;;;;;;18.67;1.23;;;4.80;99.90;;;;;;6217306;23;20004;-87
2023/02/25 09:36:18;;;;;;;10.65;1.35;;;4.80;99.90;;;;;;6219460;23;20008;-87
2023/02/25 09:38:45;;;;;;;13.80;0.70;;;5.00;99.90;;;;;;6219549;23;20004;-87
2023/02/25 09:41:31;;;;;;;12.07;0.73;;;5.10;99.90;;;;;;6218682;23;20338;-87
2023/02/25 09:44:09;;;;;;;14.48;0.80;;;5.20;99.90;;;;;;6216470;23;20000;-87
2023/02/25 09:46:42;;;;;;;5.85;1.17;;;5.30;99.90;;;;;;6218726;23;20026;-88
2023/02/25 09:49:30;;;;;;;12.15;1.58;;;5.30;99.90;;;;;;6219923;23;20439;-88
2023/02/25 09:52:04;;;;;;;12.43;0.60;;;5.40;99.90;;;;;;6219466;22;20012;-88
2023/02/25 09:54:37;;;;;;;9.52;0.95;;;5.40;99.90;;;;;;6220708;23;20031;-92
2023/02/25 09:57:03;;;;;;;;;;;5.50;99.90;;;;;;6248514;23;20000;-95
2023/02/25 09:59:29;;;;;;;6.93;0.70;;;5.60;99.90;;;;;;6220286;23;19899;-88
2023/02/25 10:02:20;;;;;;;4.55;0.40;;;5.70;99.90;;;;;;6220626;23;20024;-88
2023/02/25 10:05:10;;;;;;;8.27;0.40;;;5.80;99.90;;;;;;6246486;23;20043;-88
2023/02/25 10:07:57;;;;;;;6.85;0.47;;;6.00;99.90;;;;;;6245917;23;20083;-88
2023/02/25 10:10:45;;;;;;;6.80;0.30;;;6.10;99.90;;;;;;6219213;23;20366;-89
2023/02/25 10:13:53;;;;;;;8.00;0.50;;;6.20;99.90;;;;;;6220023;23;20096;-89
2023/02/25 10:16:24;;;;;;;11.27;0.30;;;6.20;99.90;;;;;;6245527;23;20004;-88
2023/02/25 10:19:02;;;;;;;3.65;0.30;;;6.20;99.90;;;;;;6245351;22;20766;-88
2023/02/25 10:21:50;;;;;;;3.63;0.30;;;6.30;99.90;;;;;;6217927;23;20070;-87
2023/02/25 10:24:28;;;;;;;10.82;0.57;;;6.40;99.90;;;;;;6217317;22;20032;-87
2023/02/25 10:27:02;;;;;;;3.67;0.30;;;6.50;99.90;;;;;;6221166;23;20104;-87
2023/02/25 10:29:37;;;;;;;6.68;0.70;;;6.60;99.90;;;;;;6245995;23;20124;-88
2023/02/25 10:32:20;;;;;;;2.85;0.50;;;6.70;99.90;;;;;;6216845;23;20000;-88
2023/02/25 10:34:46;;;;;;;7.03;0.50;;;6.90;99.90;;;;;;6218345;23;20011;-88
2023/02/25 10:37:20;;;;;;;5.50;0.38;;;7.00;99.90;;;;;;6217624;23;20001;-89
2023/02/25 10:39:47;;;;;;;2.60;0.30;;;7.10;99.90;;;;;;6217309;22;20004;-88
2023/02/25 10:42:14;;;;;;;5.15;0.20;;;7.00;99.90;;;;;;6220615;23;20000;-87
2023/02/25 10:44:42;;;;;;;4.93;0.40;;;6.90;99.90;;;;;;6215498;23;20004;-88
2023/02/25 10:47:14;;;;;;;5.63;0.30;;;6.80;99.90;;;;;;6217949;23;20004;-88
2023/02/25 10:49:40;;;;;;;6.18;0.50;;;6.60;99.90;;;;;;6218437;23;20004;-88
2023/02/25 10:52:18;;;;;;;3.38;0.30;;;6.50;99.90;;;;;;6219021;22;20090;-88
2023/02/25 10:54:49;;;;;;;3.65;0.30;;;6.40;99.90;;;;;;6219679;23;20004;-89
2023/02/25 10:57:21;;;;;;;3.38;0.40;;;6.40;99.90;;;;;;6220152;23;20338;-88
2023/02/25 10:59:59;;;;;;;5.70;0.30;;;6.40;99.90;;;;;;6217138;23;20032;-88
2023/02/25 11:02:30;;;;;;;8.98;0.63;;;6.40;99.90;;;;;;6217182;23;20390;-88
2023/02/25 11:04:56;;;;;;;9.60;0.82;;;6.40;99.90;;;;;;6218828;23;20004;-88
2023/02/25 11:07:30;;;;;;;4.28;0.28;;;6.50;99.90;;;;;;6218621;23;20079;-88
2023/02/25 11:10:13;;;;;;;6.47;0.30;;;6.50;99.90;;;;;;6219509;23;20488;-88
2023/02/25 11:12:41;;;;;;;3.13;0.30;;;6.50;99.90;;;;;;6219004;23;20023;-88
2023/02/25 11:15:28;;;;;;;5.53;0.40;;;6.50;99.90;;;;;;6217937;22;20011;-87
2023/02/25 11:18:18;;;;;;;8.05;0.40;;;6.50;99.90;;;;;;6216913;23;20432;-88
2023/02/25 11:21:02;;;;;;;5.65;0.40;;;6.40;99.90;;;;;;6190754;23;20017;-88
2023/02/25 11:23:38;;;;;;;6.40;0.40;;;6.10;99.90;;;;;;6215681;23;20012;-87
2023/02/25 11:26:05;;;;;;;2.47;0.50;;;5.70;99.90;;;;;;6217049;23;20008;-88
2023/02/25 11:28:37;;;;;;;7.70;0.35;;;5.50;99.90;;;;;;6244212;23;20346;-87
2023/02/25 11:31:11;;;;;;;12.73;0.50;;;5.40;99.90;;;;;;6216186;23;20080;-88
2023/02/25 11:33:41;;;;;;;16.85;2.08;;;5.20;99.90;;;;;;6235061;23;20038;-88
2023/02/25 11:36:07;;;;;;;8.27;0.40;;;5.10;99.90;;;;;;6243256;23;20479;-88
2023/02/25 11:38:41;;;;;;;4.57;0.32;;;5.10;99.90;;;;;;6217880;23;20031;-88
2023/02/25 11:41:22;;;;;;;2.40;0.28;;;5.10;99.90;;;;;;6218146;23;20008;-88
2023/02/25 11:43:48;;;;;;;5.07;0.40;;;5.10;99.90;;;;;;6217675;23;20031;-88
2023/02/25 11:46:31;;;;;;;5.00;0.40;;;5.10;99.90;;;;;;6215954;23;20040;-88
2023/02/25 11:49:02;;;;;;;;;;;5.20;99.90;;;;;;6217746;23;20018;-88
2023/02/25 11:51:39;;;;;;;9.00;0.35;;;5.40;99.90;;;;;;6216482;23;19900;-87
2023/02/25 11:54:17;;;;;;;3.45;0.30;;;5.60;99.90;;;;;;6241712;23;20490;-88
2023/02/25 11:56:49;;;;;;;6.20;0.40;;;5.90;99.90;;;;;;6241531;22;20052;-87
2023/02/25 11:59:38;;;;;;;4.90;0.30;;;6.10;99.90;;;;;;6216617;23;20038;-87
2023/02/25 12:02:29;;;;;;;9.25;0.50;;;6.40;99.90;;;;;;6245710;23;20004;-87
2023/02/25 12:05:14;;;;;;;6.50;0.30;;;6.60;99.90;;;;;;6218792;23;20087;-87
2023/02/25 12:07:56;;;;;;;10.55;0.50;;;6.70;99.90;;;;;;6218703;23;20058;-86
2023/02/25 12:10:43;;;;;;;4.95;0.40;;;6.80;99.90;;;;;;6218980;23;20004;-87
2023/02/25 12:13:42;;;;;;;5.57;0.43;;;6.80;99.90;;;;;;6219191;23;20008;-87
2023/02/25 12:16:20;;;;;;;5.43;0.50;;;6.70;99.90;;;;;;6218011;23;20004;-87
2023/02/25 12:18:51;;;;;;;6.80;0.90;;;6.60;99.90;;;;;;6217646;23;20441;-87
2023/02/25 12:21:31;;;;;;;2.80;0.30;;;6.60;99.90;;;;;;6187569;23;20031;-87
2023/02/25 12:24:27;;;;;;;6.35;0.40;;;6.50;99.90;;;;;;6214078;23;20063;-87
2023/02/25 12:27:21;;;;;;;3.50;0.32;;;6.60;99.90;;;;;;6213545;23;20062;-87
2023/02/25 12:30:15;;;;;;;6.72;0.43;;;6.80;99.90;;;;;;6187297;23;20012;-87
2023/02/25 12:32:56;;;;;;;5.05;0.40;;;6.80;99.90;;;;;;6161820;23;20000;-87
2023/02/25 12:35:54;;;;;;;6.63;0.40;;;6.90;99.90;;;;;;6187360;23;20039;-87
2023/02/25 12:38:59;;;;;;;4.18;0.40;;;7.20;99.90;;;;;;6182533;23;19997;-86
2023/02/25 12:41:46;;;;;;;6.20;0.40;;;7.40;99.90;;;;;;6213857;23;19997;-86
2023/02/25 12:44:46;;;;;;;7.03;0.60;;;7.40;99.90;;;;;;6212238;23;20000;-87
2023/02/25 12:47:35;;;;;;;8.63;0.85;;;7.60;99.90;;;;;;6186796;23;20011;-87
2023/02/25 12:50:15;;;;;;;6.20;0.50;;;7.70;99.90;;;;;;6187195;23;20074;-86
2023/02/25 12:53:16;;;;;;;5.88;0.40;;;7.80;99.90;;;;;;6214314;23;19997;-87
2023/02/25 12:56:03;;;;;;;4.38;0.57;;;7.90;99.90;;;;;;6184727;23;20012;-87
2023/02/25 12:58:54;;;;;;;3.88;0.50;;;7.70;98.20;;;;;;6214254;23;20043;-86
2023/02/25 13:01:50;;;;;;;5.70;0.38;;;7.40;97.40;;;;;;6187200;23;20339;-87
2023/02/25 13:05:08;;;;;;;18.73;0.60;;;7.20;96.90;;;;;;6188354;23;20004;-86
2023/02/25 13:08:05;;;;;;;6.00;0.75;;;7.20;97.70;;;;;;6165282;23;20482;-86
2023/02/25 13:10:40;;;;;;;6.53;0.35;;;7.40;97.40;;;;;;6213942;23;20000;-87
2023/02/25 13:13:23;;;;;;;4.32;0.40;;;7.60;96.80;;;;;;6186682;23;20004;-87